Etusivu
METAR-TAF:

METAR-TAF

Lentoasemat :

Rarotonga, Cookinsaaret

Rarotongan kansainvälinen lentoasema

Leveyspiiri: 21-12S, Pituuspiiri: 159-49W, korkeus merenpinnasta: 7 m

Tämänhetkinen sää

Tämä raportti tehtiin 50 minuuttia sitten, kello 18.00 UTC
Tuuli 5 kn idästä
Lämpötila 24°C
Kosteus 78%
Ilmanpaine 1016 hPa
Näkyvyys 10 km tai enemmän
Hajanaisia pilviä 1500 ft:n korkeudessa

METAR: NCRG 231800Z 08005KT 9999 SCT015 24/20 Q1016

Aika: 08:50 (18:50 UTC)

Sääennuste

Tämä raportti tehtiin 1 tunti ja 50 minuuttia sitten, kello 17.00 UTC
Ennuste voimassa 23. päivästä klo 18 UTC - 24. päivään klo 18 UTC
Tuuli 10 kn idästä
Näkyvyys 10 km tai enemmän
Hajanaisia pilviä 1700 ft:n korkeudessa
Hajanaisia pilviä 4000 ft:n korkeudessa

TAF: NCRG 231700Z 2318/2418 08010KT 9999 SCT017 SCT040

Säähavainnot ja -ennusteet yli 4000 lentoasemalta (METAR- ja TAF-raportit).

Käytössä olevat sääasemat on merkitty karttaan keltaisilla ja punaisilla pisteillä.

Aseta hiiri pisteen päälle nähdäksesi sääaseman nimen.

Klikkaa sitten nähdäksesi säähavainnot ja -ennusteet.

Kartan vaihtaminen: klikkaa mustalla rastilla varustettuja vihreitä pisteitä, niin voit zoomata sisään; viivalla varustettua vihreää pistettä, niin voit zoomata ulos tai vihreitä nuolia, niin pääset viereisille kartoille.


METAR-TAF: